createdAt,value
2023-02-11T00:01:39.758Z,101219.40
2023-02-11T00:06:43.211Z,101195.40
2023-02-11T00:11:46.150Z,101168.20
2023-02-11T00:16:49.072Z,101148.40
2023-02-11T00:21:52.019Z,101146.80
2023-02-11T00:26:54.960Z,101129.20
2023-02-11T00:31:58.170Z,101099.60
2023-02-11T00:37:01.648Z,101092.40
2023-02-11T00:42:04.883Z,101111.40
2023-02-11T00:47:07.790Z,101095.00
2023-02-11T00:52:10.752Z,101087.20
2023-02-11T00:57:13.724Z,101075.80
2023-02-11T01:02:17.275Z,101048.40
2023-02-11T01:07:20.183Z,101045.40
2023-02-11T01:12:24.315Z,101021.60
2023-02-11T01:17:27.307Z,101006.00
2023-02-11T01:22:30.303Z,100972.00
2023-02-11T01:27:33.317Z,100967.20
2023-02-11T01:32:36.624Z,100944.40
2023-02-11T01:37:39.642Z,100923.60
2023-02-11T01:42:43.812Z,100933.60
2023-02-11T01:47:46.778Z,100926.80
2023-02-11T01:52:49.955Z,100924.20
2023-02-11T01:57:57.300Z,100911.00
2023-02-11T02:03:18.150Z,100906.00
2023-02-11T02:08:40.847Z,100914.60
2023-02-11T02:13:45.074Z,100899.40
2023-02-11T02:19:32.820Z,100881.40
2023-02-11T02:25:01.235Z,100874.60
2023-02-11T02:30:10.126Z,100880.80
2023-02-11T02:35:23.142Z,100863.80
2023-02-11T02:40:33.643Z,100848.80
2023-02-11T02:45:36.844Z,100826.60
2023-02-11T02:50:39.847Z,100806.40
2023-02-11T02:56:18.035Z,100787.60
2023-02-11T03:01:56.504Z,100789.80
2023-02-11T03:07:33.060Z,100794.80
2023-02-11T03:12:38.675Z,100782.00
2023-02-11T03:17:48.370Z,100756.80
2023-02-11T03:23:05.031Z,100750.20
2023-02-11T03:28:27.964Z,100738.20
2023-02-11T03:33:43.151Z,100725.20
2023-02-11T03:38:52.287Z,100715.60
2023-02-11T03:43:59.553Z,100705.80
2023-02-11T03:49:13.538Z,100707.60
2023-02-11T03:54:24.114Z,100702.40
2023-02-11T03:59:28.459Z,100711.80
2023-02-11T04:04:31.622Z,100708.60
2023-02-11T04:09:35.482Z,100687.00
2023-02-11T04:14:38.669Z,100681.20
2023-02-11T04:19:41.828Z,100673.80
2023-02-11T04:24:44.738Z,100654.40
2023-02-11T04:29:47.673Z,100638.80
2023-02-11T04:34:50.769Z,100628.00
2023-02-11T04:39:53.693Z,100624.00
2023-02-11T04:44:56.615Z,100616.40
2023-02-11T04:49:59.670Z,100603.80
2023-02-11T04:55:02.786Z,100607.80
2023-02-11T05:00:07.113Z,100596.00
2023-02-11T05:05:10.256Z,100585.00
2023-02-11T05:10:13.164Z,100579.00
2023-02-11T05:15:16.392Z,100567.20
2023-02-11T05:20:19.566Z,100569.60
2023-02-11T05:25:22.665Z,100558.20
2023-02-11T05:30:25.867Z,100543.60
2023-02-11T05:35:28.943Z,100537.60
2023-02-11T05:40:31.873Z,100542.60
2023-02-11T05:45:35.012Z,100520.40
2023-02-11T05:50:38.107Z,100524.40
2023-02-11T05:55:41.189Z,100512.20
2023-02-11T06:00:44.237Z,100509.40
2023-02-11T06:05:47.555Z,100494.00
2023-02-11T06:10:50.569Z,100512.20
2023-02-11T06:16:02.144Z,100496.60
2023-02-11T06:21:10.516Z,100485.00
2023-02-11T06:26:23.710Z,100494.60
2023-02-11T06:31:27.604Z,100484.20
2023-02-11T06:36:30.972Z,100480.40
2023-02-11T06:41:34.499Z,100472.40
2023-02-11T06:46:37.466Z,100466.80
2023-02-11T06:51:41.141Z,100467.00
2023-02-11T06:56:44.187Z,100466.20
2023-02-11T07:01:47.946Z,100455.60
2023-02-11T07:06:50.888Z,100436.00
2023-02-11T07:11:53.860Z,100418.00
2023-02-11T07:16:56.837Z,100431.00
2023-02-11T07:21:59.882Z,100422.80
2023-02-11T07:27:02.875Z,100417.20
2023-02-11T07:32:07.188Z,100408.20
2023-02-11T07:37:12.692Z,100425.80
2023-02-11T07:42:17.287Z,100435.20
2023-02-11T07:47:21.169Z,100441.80
2023-02-11T07:52:24.378Z,100427.60
2023-02-11T07:57:27.920Z,100424.60
2023-02-11T08:02:31.154Z,100399.80
2023-02-11T08:07:37.257Z,100401.00
2023-02-11T08:12:40.876Z,100393.40
2023-02-11T08:17:46.297Z,100361.80
2023-02-11T08:22:50.339Z,100380.00
2023-02-11T08:27:53.688Z,100364.20
2023-02-11T08:32:56.821Z,100382.80
2023-02-11T08:37:59.716Z,100377.00
2023-02-11T08:43:03.149Z,100356.60
2023-02-11T08:48:06.702Z,100384.40
2023-02-11T08:53:09.800Z,100360.60
2023-02-11T08:58:12.862Z,100360.20
2023-02-11T09:03:17.018Z,100364.60
2023-02-11T09:08:21.415Z,100375.80
2023-02-11T09:13:24.376Z,100349.20
2023-02-11T09:18:30.293Z,100373.20
2023-02-11T09:23:36.136Z,100324.00
2023-02-11T09:28:39.920Z,100322.60
2023-02-11T09:33:58.949Z,100304.60
2023-02-11T09:39:03.582Z,100296.00
2023-02-11T09:44:18.699Z,100339.00
2023-02-11T09:49:53.212Z,100354.80
2023-02-11T09:55:04.310Z,100347.00
2023-02-11T10:00:24.605Z,100339.00
2023-02-11T10:05:36.191Z,100339.20
2023-02-11T10:10:55.625Z,100326.60
2023-02-11T10:16:25.499Z,100335.60
2023-02-11T10:21:47.928Z,100325.60
2023-02-11T10:26:52.738Z,100317.80
2023-02-11T10:31:58.311Z,100300.00
2023-02-11T10:37:01.563Z,100312.60
2023-02-11T10:42:11.624Z,100285.40
2023-02-11T10:47:23.686Z,100286.80
2023-02-11T10:52:30.796Z,100282.20
2023-02-11T10:57:45.735Z,100278.40
2023-02-11T11:03:00.089Z,100274.60
2023-02-11T11:08:08.114Z,100268.20
2023-02-11T11:13:23.552Z,100259.00
2023-02-11T11:18:26.672Z,100253.80
2023-02-11T11:23:31.774Z,100302.00
2023-02-11T11:28:47.281Z,100317.80
2023-02-11T11:33:53.849Z,100308.00
2023-02-11T11:39:01.952Z,100290.80
2023-02-11T11:44:28.101Z,100312.20
2023-02-11T11:49:44.205Z,100322.00
2023-02-11T11:54:58.219Z,100300.60
2023-02-11T12:00:01.202Z,100331.40
2023-02-11T12:05:36.382Z,100338.80
2023-02-11T12:11:25.860Z,100334.00
2023-02-11T12:17:03.821Z,100342.40
2023-02-11T12:22:54.216Z,100344.20
2023-02-11T12:28:37.244Z,100340.60
2023-02-11T12:34:08.376Z,100337.00
2023-02-11T12:39:51.965Z,100338.20
2023-02-11T12:45:14.424Z,100347.20
2023-02-11T12:50:59.336Z,100347.80
2023-02-11T12:56:17.836Z,100344.60
2023-02-11T13:01:35.158Z,100348.80
2023-02-11T13:06:50.449Z,100346.20
2023-02-11T13:12:19.638Z,100367.40
2023-02-11T13:18:01.413Z,100376.20
2023-02-11T13:23:52.377Z,100387.40
2023-02-11T13:29:17.698Z,100391.60
2023-02-11T13:34:44.797Z,100403.20
2023-02-11T13:40:21.526Z,100405.20
2023-02-11T13:45:40.465Z,100405.40
2023-02-11T13:50:51.158Z,100419.00
2023-02-11T13:56:12.674Z,100413.40
2023-02-11T14:02:12.098Z,100422.60
2023-02-11T14:07:52.687Z,100437.00
2023-02-11T14:13:22.129Z,100447.80
2023-02-11T14:19:01.097Z,100449.40
2023-02-11T14:24:11.184Z,100468.60
2023-02-11T14:29:26.888Z,100476.60
2023-02-11T14:34:53.797Z,100483.80
2023-02-11T14:40:39.149Z,100493.60
2023-02-11T14:45:51.267Z,100509.80
2023-02-11T14:51:19.209Z,100517.60
2023-02-11T14:56:31.250Z,100535.40
2023-02-11T15:01:41.531Z,100538.20
2023-02-11T15:06:49.780Z,100543.40
2023-02-11T15:11:54.065Z,100548.00
2023-02-11T15:17:04.661Z,100558.80
2023-02-11T15:22:45.822Z,100570.80
2023-02-11T15:27:52.968Z,100579.60
2023-02-11T15:33:03.715Z,100589.80
2023-02-11T15:38:08.145Z,100606.40
2023-02-11T15:43:11.865Z,100633.00
2023-02-11T15:48:22.283Z,100630.20
2023-02-11T15:53:32.842Z,100645.60
2023-02-11T15:58:42.888Z,100656.60
2023-02-11T16:03:50.951Z,100669.40
2023-02-11T16:09:17.317Z,100688.20
2023-02-11T16:14:37.245Z,100695.80
2023-02-11T16:19:47.519Z,100709.40
2023-02-11T16:24:54.817Z,100718.60
2023-02-11T16:29:58.982Z,100740.80
2023-02-11T16:35:02.112Z,100752.60
2023-02-11T16:40:06.720Z,100770.00
2023-02-11T16:45:10.174Z,100772.80
2023-02-11T16:50:25.008Z,100782.20
2023-02-11T16:55:32.671Z,100789.00
2023-02-11T17:00:37.514Z,100800.40
2023-02-11T17:05:58.035Z,100815.00
2023-02-11T17:11:02.216Z,100835.80
2023-02-11T17:16:05.571Z,100842.20
2023-02-11T17:21:09.007Z,100847.20
2023-02-11T17:26:12.016Z,100869.40
2023-02-11T17:31:15.468Z,100887.40
2023-02-11T17:36:18.542Z,100915.60
2023-02-11T17:41:21.523Z,100928.00
2023-02-11T17:46:25.369Z,100938.40
2023-02-11T17:51:35.368Z,100949.00
2023-02-11T17:56:38.775Z,100966.60
2023-02-11T18:01:43.449Z,100976.00
2023-02-11T18:06:47.463Z,100999.00
2023-02-11T18:11:52.677Z,101001.80
2023-02-11T18:16:55.821Z,101012.00
2023-02-11T18:22:01.090Z,101028.60
2023-02-11T18:27:04.492Z,101045.20
2023-02-11T18:32:07.537Z,101047.20
2023-02-11T18:37:13.550Z,101061.20
2023-02-11T18:42:16.575Z,101074.00
2023-02-11T18:47:19.512Z,101091.00
2023-02-11T18:52:22.448Z,101111.00
2023-02-11T18:57:25.455Z,101116.80
2023-02-11T19:02:30.121Z,101132.20
2023-02-11T19:07:33.390Z,101151.40
2023-02-11T19:12:39.408Z,101163.60
2023-02-11T19:17:42.437Z,101177.80
2023-02-11T19:22:45.582Z,101182.40
2023-02-11T19:27:48.555Z,101204.60
2023-02-11T19:32:52.780Z,101220.80
2023-02-11T19:37:55.778Z,101230.80
2023-02-11T19:42:58.888Z,101244.20
2023-02-11T19:48:01.917Z,101264.80
2023-02-11T19:53:05.016Z,101272.40
2023-02-11T19:58:08.321Z,101281.60
2023-02-11T20:03:11.430Z,101296.40
2023-02-11T20:08:17.330Z,101305.20
2023-02-11T20:13:20.438Z,101324.60
2023-02-11T20:18:23.588Z,101342.00
2023-02-11T20:23:26.834Z,101348.60
2023-02-11T20:28:34.102Z,101360.80
2023-02-11T20:33:39.313Z,101359.80
2023-02-11T20:38:44.141Z,101374.60
2023-02-11T20:44:00.392Z,101389.40
2023-02-11T20:49:25.347Z,101395.40
2023-02-11T20:54:28.824Z,101398.60
2023-02-11T20:59:33.449Z,101410.20
2023-02-11T21:04:40.153Z,101419.80
2023-02-11T21:09:57.347Z,101436.00
2023-02-11T21:15:11.939Z,101451.00
2023-02-11T21:20:15.518Z,101459.80
2023-02-11T21:25:18.634Z,101455.60
2023-02-11T21:30:22.678Z,101458.40
2023-02-11T21:35:26.613Z,101472.20
2023-02-11T21:40:29.960Z,101481.80
2023-02-11T21:45:33.179Z,101495.60
2023-02-11T21:50:56.099Z,101501.80
2023-02-11T22:02:01.918Z,101524.80
2023-02-11T22:07:06.359Z,101532.80
2023-02-11T22:12:16.432Z,101530.20
2023-02-11T22:17:21.204Z,101545.80
2023-02-11T22:22:24.563Z,101560.00
2023-02-11T22:27:31.640Z,101561.00
2023-02-11T22:32:41.681Z,101570.80
2023-02-11T22:37:45.554Z,101584.80
2023-02-11T22:42:49.585Z,101603.40
2023-02-11T22:47:56.238Z,101609.80
2023-02-11T22:53:00.285Z,101626.20
2023-02-11T22:58:04.095Z,101635.80
2023-02-11T23:03:09.181Z,101630.00
2023-02-11T23:08:12.432Z,101622.40
2023-02-11T23:13:15.624Z,101626.60
2023-02-11T23:18:18.575Z,101631.60
2023-02-11T23:23:21.673Z,101643.20
2023-02-11T23:28:24.698Z,101646.40
2023-02-11T23:33:27.810Z,101643.20
2023-02-11T23:38:30.838Z,101644.20
2023-02-11T23:43:33.883Z,101661.80
2023-02-11T23:48:37.853Z,101660.40
2023-02-11T23:53:41.914Z,101682.60
2023-02-11T23:58:49.342Z,101681.80
